Time;durP1;ratioP1;P1;durP2;ratioP2;P2;SDS_P1;SDS_P2;PMS_P1;PMS_P2;Temp;Humidity;BMP_temperature;BMP_pressure;BME280_temperature;BME280_humidity;BME280_pressure;Samples;Min_cycle;Max_cycle;Signal;HPM_P1;HPM_P2
2022/06/01 00:00:34;;;;;;;;;;;;;;;16.89;41.04;100754.56;5064813;28;781;-65
2022/06/01 00:03:00;;;;;;;;;;;;;;;16.96;41.18;100751.56;5061417;28;954;-65
2022/06/01 00:05:25;;;;;;;;;;;;;;;16.89;41.07;100757.31;5059116;28;838;-65
2022/06/01 00:07:51;;;;;;;;;;;;;;;16.90;41.06;100741.66;5058701;28;1913;-65
2022/06/01 00:10:16;;;;;;;;;;;;;;;16.90;41.06;100736.16;5059747;28;831;-65
2022/06/01 00:12:42;;;;;;;;;;;;;;;16.88;41.34;100732.84;5065137;28;790;-65
2022/06/01 00:15:08;;;;;;;;;;;;;;;16.92;40.93;100729.28;5059273;28;1001;-65
2022/06/01 00:17:33;;;;;;;;;;;;;;;16.91;41.26;100743.31;5062850;28;1030;-65
2022/06/01 00:19:59;;;;;;;;;;;;;;;16.94;40.79;100737.25;5058860;28;834;-65
2022/06/01 00:22:24;;;;;;;;;;;;;;;16.94;40.93;100737.25;5058405;28;945;-65
2022/06/01 00:24:49;;;;;;;;;;;;;;;16.92;40.94;100728.50;5059412;28;1112;-65
2022/06/01 00:27:15;;;;;;;;;;;;;;;16.94;41.10;100729.03;5064167;28;2005;-65
2022/06/01 00:29:41;;;;;;;;;;;;;;;16.90;40.89;100719.69;5039696;28;1585;-65
2022/06/01 00:32:07;;;;;;;;;;;;;;;16.91;41.16;100719.44;5066004;28;1010;-66
2022/06/01 00:34:32;;;;;;;;;;;;;;;16.91;40.98;100726.81;5058659;28;966;-66
2022/06/01 00:36:58;;;;;;;;;;;;;;;16.95;40.93;100719.69;5057979;28;787;-66
2022/06/01 00:39:23;;;;;;;;;;;;;;;16.95;40.75;100714.19;5063905;28;842;-66
2022/06/01 00:41:49;;;;;;;;;;;;;;;16.92;41.06;100712.00;5058127;28;736;-66
2022/06/01 00:44:14;;;;;;;;;;;;;;;16.90;40.65;100715.03;5057561;28;881;-66
2022/06/01 00:46:39;;;;;;;;;;;;;;;16.90;41.06;100711.44;5058161;28;1906;-67
2022/06/01 00:49:11;;;;;;;;;;;;;;;16.88;40.79;100705.38;5058114;28;830;-66
2022/06/01 00:51:37;;;;;;;;;;;;;;;16.92;40.59;100706.50;5063957;28;845;-66
2022/06/01 00:54:02;;;;;;;;;;;;;;;16.90;40.67;100697.72;5058520;28;737;-66
2022/06/01 00:56:31;;;;;;;;;;;;;;;16.90;40.51;100700.47;5040287;28;877;-66
2022/06/01 00:58:56;;;;;;;;;;;;;;;16.87;40.75;100692.75;5058108;28;822;-66
2022/06/01 01:01:22;;;;;;;;;;;;;;;16.90;40.66;100695.81;5045236;28;1472;-67
2022/06/01 01:03:49;;;;;;;;;;;;;;;16.88;40.63;100683.41;5064629;28;765;-67
2022/06/01 01:06:18;;;;;;;;;;;;;;;16.90;40.60;100686.72;5039929;28;1893;-67
2022/06/01 01:08:43;;;;;;;;;;;;;;;16.91;40.74;100683.72;5057771;28;990;-66
2022/06/01 01:11:09;;;;;;;;;;;;;;;16.91;40.53;100691.13;5057586;28;896;-66
2022/06/01 01:13:35;;;;;;;;;;;;;;;16.92;40.70;100681.78;5040251;28;766;-67
2022/06/01 01:16:00;;;;;;;;;;;;;;;16.93;40.64;100692.50;5043322;28;1008;-67
2022/06/01 01:18:26;;;;;;;;;;;;;;;16.90;40.71;100678.50;5039624;28;998;-66
2022/06/01 01:21:04;;;;;;;;;;;;;;;16.89;40.61;100679.59;5038800;28;1140;-66
2022/06/01 01:23:31;;;;;;;;;;;;;;;16.86;40.80;100669.16;5057844;28;830;-66
2022/06/01 01:25:57;;;;;;;;;;;;;;;16.88;40.51;100672.44;5039282;28;1906;-66
2022/06/01 01:28:22;;;;;;;;;;;;;;;16.95;40.46;100677.66;5038605;28;841;-66
2022/06/01 01:31:06;;;;;;;;;;;;;;;16.82;40.66;100679.03;5068626;28;1019;-66
2022/06/01 01:33:32;;;;;;;;;;;;;;;16.90;40.70;100682.06;5046348;28;869;-66
2022/06/01 01:36:05;;;;;;;;;;;;;;;16.88;40.56;100683.41;5057479;28;801;-66
2022/06/01 01:39:03;;;;;;;;;;;;;;;16.86;40.73;100680.94;5070446;28;797;-67
2022/06/01 01:41:30;;;;;;;;;;;;;;;16.86;40.43;100688.38;5018661;28;1395;-66
2022/06/01 01:43:55;;;;;;;;;;;;;;;16.86;40.56;100688.38;5041403;28;889;-66
2022/06/01 01:46:21;;;;;;;;;;;;;;;16.91;40.23;100680.13;5056771;28;1979;-66
2022/06/01 01:48:46;;;;;;;;;;;;;;;16.91;40.42;100688.38;5039617;28;907;-65
2022/06/01 01:51:12;;;;;;;;;;;;;;;16.91;40.17;100689.22;5056394;28;874;-65
2022/06/01 01:53:37;;;;;;;;;;;;;;;16.90;40.21;100686.72;5056366;28;830;-66
2022/06/01 01:56:26;;;;;;;;;;;;;;;16.85;40.46;100693.03;5062438;28;1456;-65
2022/06/01 01:59:02;;;;;;;;;;;;;;;16.88;40.57;100678.75;5045983;28;1311;-66
2022/06/01 02:01:30;;;;;;;;;;;;;;;16.84;40.55;100677.66;5045665;28;828;-66
2022/06/01 02:03:57;;;;;;;;;;;;;;;16.87;40.55;100676.28;5052064;28;849;-66
2022/06/01 02:06:34;;;;;;;;;;;;;;;16.92;40.28;100670.81;5055362;28;1902;-66
2022/06/01 02:09:03;;;;;;;;;;;;;;;16.84;40.68;100676.84;5038352;28;732;-66
2022/06/01 02:14:32;;;;;;;;;;;;;;;16.87;40.53;100670.78;5056641;28;1021;-67
2022/06/01 02:17:05;;;;;;;;;;;;;;;16.92;40.78;100673.56;5039974;28;931;-66
2022/06/01 02:19:34;;;;;;;;;;;;;;;16.86;40.97;100671.91;5068999;28;781;-66
2022/06/01 02:22:00;;;;;;;;;;;;;;;16.82;40.90;100662.56;5056996;28;813;-66
2022/06/01 02:24:25;;;;;;;;;;;;;;;16.83;40.64;100670.53;5056496;28;932;-66
2022/06/01 02:26:52;;;;;;;;;;;;;;;16.83;40.76;100666.94;5069107;28;1905;-66
2022/06/01 02:29:18;;;;;;;;;;;;;;;16.85;41.05;100675.75;5058219;28;763;-66
2022/06/01 02:31:44;;;;;;;;;;;;;;;16.84;41.00;100671.34;5065892;28;920;-66
2022/06/01 02:34:09;;;;;;;;;;;;;;;16.83;40.97;100677.91;5056923;28;1027;-66
2022/06/01 02:36:35;;;;;;;;;;;;;;;16.83;40.83;100675.19;5038886;28;889;-66
2022/06/01 02:39:00;;;;;;;;;;;;;;;16.91;41.01;100667.25;5056286;28;907;-66
2022/06/01 02:44:10;;;;;;;;;;;;;;;16.83;40.98;100691.66;5069974;28;798;-66
2022/06/01 02:46:36;;;;;;;;;;;;;;;16.85;40.71;100678.50;5069263;28;1972;-66
2022/06/01 02:49:02;;;;;;;;;;;;;;;16.85;40.97;100689.47;5056601;28;738;-66
2022/06/01 02:51:27;;;;;;;;;;;;;;;16.86;40.74;100691.94;5038456;28;785;-66
2022/06/01 02:53:53;;;;;;;;;;;;;;;16.85;40.98;100693.03;5056189;28;836;-65
2022/06/01 02:56:19;;;;;;;;;;;;;;;16.88;40.81;100681.50;5056243;28;935;-66
2022/06/01 02:58:45;;;;;;;;;;;;;;;16.86;40.80;100688.38;5062248;28;858;-66
2022/06/01 03:01:11;;;;;;;;;;;;;;;16.82;40.79;100692.78;5058206;28;862;-66
2022/06/01 03:03:37;;;;;;;;;;;;;;;16.89;40.47;100694.16;5056430;28;794;-66
2022/06/01 03:06:02;;;;;;;;;;;;;;;16.88;40.80;100694.41;5056187;28;1902;-65
2022/06/01 03:08:28;;;;;;;;;;;;;;;16.89;40.92;100698.84;5058375;28;732;-65
2022/06/01 03:10:54;;;;;;;;;;;;;;;16.87;40.66;100692.75;5063887;28;852;-65
2022/06/01 03:13:20;;;;;;;;;;;;;;;16.87;40.89;100690.00;5059773;28;842;-65
2022/06/01 03:15:46;;;;;;;;;;;;;;;16.84;40.72;100701.53;5059870;28;1438;-65
2022/06/01 03:18:11;;;;;;;;;;;;;;;16.88;40.89;100705.38;5041496;28;845;-67
2022/06/01 03:20:38;;;;;;;;;;;;;;;16.86;40.92;100699.38;5063072;28;866;-69
2022/06/01 03:23:04;;;;;;;;;;;;;;;16.82;40.79;100692.78;5068938;28;948;-65
2022/06/01 03:25:29;;;;;;;;;;;;;;;16.89;40.62;100696.09;5059944;28;810;-64
2022/06/01 03:27:59;;;;;;;;;;;;;;;16.87;40.55;100693.59;5059757;28;1906;-65
2022/06/01 03:30:24;;;;;;;;;;;;;;;16.88;40.67;100691.66;5059156;28;847;-66
2022/06/01 03:32:50;;;;;;;;;;;;;;;16.92;40.44;100703.75;5059466;28;755;-64
2022/06/01 03:35:17;;;;;;;;;;;;;;;16.85;40.67;100695.78;5059354;28;781;-66
2022/06/01 03:37:42;;;;;;;;;;;;;;;16.84;40.54;100704.28;5063644;28;773;-65
2022/06/01 03:40:08;;;;;;;;;;;;;;;16.83;40.60;100695.25;5059574;28;758;-67
2022/06/01 03:42:33;;;;;;;;;;;;;;;16.84;40.51;100691.38;5060969;28;793;-66
2022/06/01 03:47:43;;;;;;;;;;;;;;;16.82;40.59;100707.31;5075618;28;1902;-66
2022/06/01 03:50:09;;;;;;;;;;;;;;;16.87;40.38;100710.06;5061329;28;883;-67
2022/06/01 03:52:34;;;;;;;;;;;;;;;16.84;40.47;100699.63;5059325;28;912;-64
2022/06/01 03:55:00;;;;;;;;;;;;;;;16.87;40.46;100709.22;5059057;28;826;-66
2022/06/01 03:57:25;;;;;;;;;;;;;;;16.86;40.68;100713.09;5059085;28;904;-65
2022/06/01 03:59:50;;;;;;;;;;;;;;;16.86;40.50;100713.91;5059430;28;842;-66
2022/06/01 04:02:16;;;;;;;;;;;;;;;16.91;41.51;100713.09;5066395;28;834;-68
2022/06/01 04:04:41;;;;;;;;;;;;;;;16.94;41.05;100729.03;5058919;28;963;-66
2022/06/01 04:07:07;;;;;;;;;;;;;;;16.83;40.99;100719.13;5059109;28;1905;-67
2022/06/01 04:09:32;;;;;;;;;;;;;;;16.89;40.88;100726.31;5058910;28;917;-66
2022/06/01 04:11:58;;;;;;;;;;;;;;;16.95;40.98;100727.94;5040381;28;889;-66
2022/06/01 04:14:23;;;;;;;;;;;;;;;16.87;40.72;100723.81;5059559;28;1014;-66
2022/06/01 04:16:49;;;;;;;;;;;;;;;16.88;40.90;100727.34;5058644;28;765;-65
2022/06/01 04:19:14;;;;;;;;;;;;;;;16.85;40.91;100727.91;5057683;28;854;-66
2022/06/01 04:21:41;;;;;;;;;;;;;;;16.89;41.01;100720.81;5059305;28;1095;-65
2022/06/01 04:24:07;;;;;;;;;;;;;;;16.85;40.98;100722.44;5053988;28;874;-66
2022/06/01 04:26:32;;;;;;;;;;;;;;;16.91;40.64;100726.81;5073371;28;1986;-66
2022/06/01 04:28:58;;;;;;;;;;;;;;;16.86;41.02;100729.56;5065709;28;752;-66
2022/06/01 04:31:23;;;;;;;;;;;;;;;16.91;40.93;100730.41;5065797;28;902;-65
2022/06/01 04:33:48;;;;;;;;;;;;;;;16.89;41.08;100726.31;5059610;28;793;-65
2022/06/01 04:36:14;;;;;;;;;;;;;;;16.87;40.84;100731.19;5058764;28;849;-66
2022/06/01 04:38:39;;;;;;;;;;;;;;;16.85;40.92;100744.41;5058455;28;810;-66
2022/06/01 04:41:05;;;;;;;;;;;;;;;16.81;41.19;100733.13;5059208;28;844;-66
2022/06/01 04:43:30;;;;;;;;;;;;;;;16.87;41.05;100736.69;5058294;28;861;-65
2022/06/01 04:45:56;;;;;;;;;;;;;;;16.89;41.25;100740.03;5063206;28;1964;-66
2022/06/01 04:48:22;;;;;;;;;;;;;;;16.91;40.85;100746.06;5061564;28;906;-66
2022/06/01 04:50:47;;;;;;;;;;;;;;;16.89;40.66;100740.84;5058583;28;817;-66
2022/06/01 04:53:13;;;;;;;;;;;;;;;16.83;40.88;100746.59;5061919;28;1366;-66
2022/06/01 04:55:39;;;;;;;;;;;;;;;16.92;40.77;100753.19;5058406;28;794;-67
2022/06/01 04:58:05;;;;;;;;;;;;;;;16.85;40.89;100747.16;5058247;28;870;-66
2022/06/01 05:00:30;;;;;;;;;;;;;;;16.83;40.93;100746.59;5061712;28;844;-66
2022/06/01 05:02:56;;;;;;;;;;;;;;;16.80;40.91;100752.63;5070402;28;1111;-67
2022/06/01 05:05:21;;;;;;;;;;;;;;;16.82;40.85;100751.25;5067756;28;1599;-66
2022/06/01 05:07:48;;;;;;;;;;;;;;;16.87;40.65;100758.66;5072611;28;1914;-65
2022/06/01 05:10:13;;;;;;;;;;;;;;;16.82;40.69;100762.25;5077431;28;1008;-66
2022/06/01 05:12:39;;;;;;;;;;;;;;;16.85;40.67;100769.13;5076547;28;877;-65
2022/06/01 05:15:05;;;;;;;;;;;;;;;16.81;40.84;100763.34;5074250;28;1195;-64
2022/06/01 05:17:31;;;;;;;;;;;;;;;16.80;40.84;100766.34;5064716;28;957;-65
2022/06/01 05:19:57;;;;;;;;;;;;;;;16.86;40.95;100776.25;5064120;28;860;-65
2022/06/01 05:22:22;;;;;;;;;;;;;;;16.87;40.98;100767.75;5058335;28;855;-65
2022/06/01 05:24:48;;;;;;;;;;;;;;;16.85;40.97;100763.63;5039548;28;912;-65
2022/06/01 05:27:13;;;;;;;;;;;;;;;16.82;41.15;100769.66;5058106;28;1973;-64
2022/06/01 05:29:38;;;;;;;;;;;;;;;16.87;40.89;100764.16;5057871;28;805;-66
2022/06/01 05:32:04;;;;;;;;;;;;;;;16.86;41.14;100768.03;5066733;28;1005;-65
2022/06/01 05:34:30;;;;;;;;;;;;;;;16.89;40.72;100767.50;5057640;28;742;-66
2022/06/01 05:36:55;;;;;;;;;;;;;;;16.84;41.19;100767.47;5057716;28;915;-66
2022/06/01 05:39:20;;;;;;;;;;;;;;;16.87;40.79;100766.91;5059695;28;950;-66
2022/06/01 05:41:46;;;;;;;;;;;;;;;16.85;41.11;100767.19;5059032;28;842;-66
2022/06/01 05:44:13;;;;;;;;;;;;;;;16.82;41.11;100764.19;5060836;28;785;-67
2022/06/01 05:46:39;;;;;;;;;;;;;;;16.85;40.98;100769.13;5058594;28;1975;-68
2022/06/01 05:49:05;;;;;;;;;;;;;;;16.84;40.85;100764.72;5057815;28;785;-68
2022/06/01 05:51:30;;;;;;;;;;;;;;;16.87;41.09;100759.50;5057098;28;751;-67
2022/06/01 05:53:56;;;;;;;;;;;;;;;16.85;40.70;100763.63;5057602;28;831;-68
2022/06/01 05:56:21;;;;;;;;;;;;;;;16.78;40.96;100761.16;5056829;28;876;-67
2022/06/01 05:58:48;;;;;;;;;;;;;;;16.82;41.07;100756.75;5062782;28;941;-67
2022/06/01 06:01:13;;;;;;;;;;;;;;;16.87;40.83;100761.41;5064441;28;837;-64
2022/06/01 06:03:38;;;;;;;;;;;;;;;16.89;40.79;100756.50;5056491;28;809;-67
2022/06/01 06:06:13;;;;;;;;;;;;;;;16.84;40.86;100761.97;5056910;28;1971;-68
2022/06/01 06:08:39;;;;;;;;;;;;;;;16.85;41.18;100756.19;5058950;28;749;-67
2022/06/01 06:11:06;;;;;;;;;;;;;;;16.84;41.06;100764.72;5060945;28;802;-67
2022/06/01 06:13:32;;;;;;;;;;;;;;;16.85;41.13;100755.38;5056724;28;858;-67
2022/06/01 06:15:58;;;;;;;;;;;;;;;16.84;41.11;100753.72;5056783;28;1096;-67
2022/06/01 06:18:23;;;;;;;;;;;;;;;16.88;41.07;100754.81;5056773;28;830;-67
2022/06/01 06:20:49;;;;;;;;;;;;;;;16.82;41.19;100751.25;5057932;28;888;-67
2022/06/01 06:23:14;;;;;;;;;;;;;;;16.85;41.11;100750.69;5062393;28;832;-68
2022/06/01 06:25:40;;;;;;;;;;;;;;;16.82;41.18;100753.19;5056586;28;857;-67
2022/06/01 06:28:05;;;;;;;;;;;;;;;16.81;41.31;100754.28;5055826;28;1985;-68
2022/06/01 06:30:31;;;;;;;;;;;;;;;16.84;40.82;100745.50;5058956;28;926;-68
2022/06/01 06:32:56;;;;;;;;;;;;;;;16.85;40.87;100752.63;5056757;28;1082;-69
2022/06/01 06:35:22;;;;;;;;;;;;;;;16.89;41.02;100751.81;5062789;28;880;-69
2022/06/01 06:37:47;;;;;;;;;;;;;;;16.85;40.95;100752.63;5056583;28;834;-67
2022/06/01 06:40:13;;;;;;;;;;;;;;;16.84;41.10;100759.22;5056628;28;866;-68
2022/06/01 06:42:38;;;;;;;;;;;;;;;16.86;41.00;100757.84;5056050;28;817;-70
2022/06/01 06:45:04;;;;;;;;;;;;;;;16.83;40.98;100757.56;5056623;28;906;-68
2022/06/01 06:47:32;;;;;;;;;;;;;;;16.83;41.02;100754.81;5056742;28;1978;-70
2022/06/01 06:49:57;;;;;;;;;;;;;;;16.87;41.00;100742.19;5057039;28;749;-69
2022/06/01 06:52:23;;;;;;;;;;;;;;;16.77;41.32;100741.13;5056720;28;911;-66
2022/06/01 06:54:48;;;;;;;;;;;;;;;16.88;41.09;100754.81;5056455;28;874;-68
2022/06/01 06:57:13;;;;;;;;;;;;;;;16.80;41.30;100747.13;5055883;28;878;-68
2022/06/01 06:59:39;;;;;;;;;;;;;;;16.77;40.94;100746.59;5059459;28;910;-69
2022/06/01 07:02:05;;;;;;;;;;;;;;;16.74;40.72;100738.88;5059373;28;952;-69
2022/06/01 07:04:30;;;;;;;;;;;;;;;16.76;40.64;100742.19;5068426;28;1313;-66
2022/06/01 07:06:55;;;;;;;;;;;;;;;16.72;40.63;100740.28;5068039;28;1910;-66
2022/06/01 07:09:21;;;;;;;;;;;;;;;16.69;40.66;100741.66;5073477;28;1173;-68
2022/06/01 07:11:46;;;;;;;;;;;;;;;16.69;40.36;100741.66;5067011;28;968;-69
2022/06/01 07:14:12;;;;;;;;;;;;;;;16.67;40.62;100743.03;5064497;28;1253;-67
2022/06/01 07:16:37;;;;;;;;;;;;;;;16.65;40.54;100739.72;5065090;28;1265;-67
2022/06/01 07:19:04;;;;;;;;;;;;;;;16.64;40.39;100738.91;5075358;28;1527;-68
2022/06/01 07:21:29;;;;;;;;;;;;;;;16.69;40.56;100736.16;5061121;28;777;-67
2022/06/01 07:23:55;;;;;;;;;;;;;;;16.70;40.57;100731.50;5056694;28;955;-71
2022/06/01 07:26:21;;;;;;;;;;;;;;;16.68;40.49;100742.75;5059880;28;1902;-70
2022/06/01 07:28:46;;;;;;;;;;;;;;;16.67;40.59;100738.34;5055997;28;882;-67
2022/06/01 07:31:13;;;;;;;;;;;;;;;16.66;40.36;100731.25;5057180;28;811;-66
2022/06/01 07:33:38;;;;;;;;;;;;;;;16.63;40.65;100736.44;5056304;28;830;-66
2022/06/01 07:36:04;;;;;;;;;;;;;;;16.64;40.61;100744.41;5056036;28;898;-68
2022/06/01 07:44:07;;;;;;;;;;;;;;;16.67;40.45;100732.06;5032246;28;1165;-67
2022/06/01 07:46:34;;;;;;;;;;;;;;;16.65;40.47;100732.31;5055890;28;1905;-67
2022/06/01 07:48:59;;;;;;;;;;;;;;;16.64;40.71;100730.66;5056096;28;903;-69
2022/06/01 07:51:25;;;;;;;;;;;;;;;16.63;40.63;100730.94;5059215;28;897;-65
2022/06/01 07:53:50;;;;;;;;;;;;;;;16.69;40.30;100733.44;5055866;28;849;-66
2022/06/01 07:56:16;;;;;;;;;;;;;;;16.66;40.49;100724.91;5059097;28;830;-69
2022/06/01 07:58:41;;;;;;;;;;;;;;;16.64;40.80;100733.41;5059195;28;778;-69
2022/06/01 08:01:07;;;;;;;;;;;;;;;16.65;40.74;100729.59;5064030;28;836;-69
2022/06/01 08:03:32;;;;;;;;;;;;;;;16.62;40.71;100737.53;5065807;28;753;-69
2022/06/01 08:05:57;;;;;;;;;;;;;;;16.75;40.52;100735.06;5058947;28;1977;-68
2022/06/01 08:08:23;;;;;;;;;;;;;;;16.63;40.80;100737.25;5059306;28;750;-67
2022/06/01 08:10:48;;;;;;;;;;;;;;;16.63;40.82;100745.50;5059479;28;779;-68
2022/06/01 08:13:14;;;;;;;;;;;;;;;16.66;40.89;100746.88;5060257;28;1123;-70
2022/06/01 08:15:46;;;;;;;;;;;;;;;16.68;40.51;100756.47;5073965;28;1386;-67
2022/06/01 08:18:15;;;;;;;;;;;;;;;16.60;40.90;100755.09;5076170;28;1115;-67
2022/06/01 08:20:42;;;;;;;;;;;;;;;16.64;40.74;100744.41;5068991;28;1273;-68
2022/06/01 08:23:07;;;;;;;;;;;;;;;16.61;40.48;100755.94;5078114;28;916;-69
2022/06/01 08:25:33;;;;;;;;;;;;;;;16.60;40.53;100754.28;5073238;28;1177;-69
2022/06/01 08:27:58;;;;;;;;;;;;;;;16.59;40.49;100756.22;5069823;28;1967;-69
2022/06/01 08:30:25;;;;;;;;;;;;;;;16.68;40.58;100756.47;5066239;28;777;-68
2022/06/01 08:32:50;;;;;;;;;;;;;;;16.62;40.53;100757.59;5058708;28;977;-69
2022/06/01 08:35:18;;;;;;;;;;;;;;;16.65;40.67;100762.53;5058814;28;1533;-69
2022/06/01 08:37:45;;;;;;;;;;;;;;;16.64;40.43;100758.13;5078219;28;998;-68
2022/06/01 08:40:11;;;;;;;;;;;;;;;16.61;40.79;100758.69;5065364;28;1100;-66
2022/06/01 08:42:36;;;;;;;;;;;;;;;16.68;40.64;100766.66;5064828;28;925;-68
2022/06/01 08:45:04;;;;;;;;;;;;;;;16.68;40.51;100759.22;5058773;28;817;-66
2022/06/01 08:47:31;;;;;;;;;;;;;;;16.65;40.54;100764.44;5042437;28;1979;-68
2022/06/01 08:49:57;;;;;;;;;;;;;;;16.67;40.64;100759.50;5073100;28;1111;-67
2022/06/01 08:52:22;;;;;;;;;;;;;;;16.65;40.68;100761.69;5042005;28;854;-68
2022/06/01 08:54:48;;;;;;;;;;;;;;;16.65;40.66;100762.53;5041683;28;734;-67
2022/06/01 08:57:20;;;;;;;;;;;;;;;16.64;41.00;100766.38;5058886;28;777;-69
2022/06/01 08:59:51;;;;;;;;;;;;;;;16.65;40.94;100753.44;5040828;28;850;-69
2022/06/01 09:02:20;;;;;;;;;;;;;;;16.69;40.70;100758.13;5063863;28;1156;-66
2022/06/01 09:04:45;;;;;;;;;;;;;;;16.73;40.89;100753.75;5039802;28;1174;-67
2022/06/01 09:07:11;;;;;;;;;;;;;;;16.74;40.86;100752.63;5062869;28;1917;-66
2022/06/01 09:09:39;;;;;;;;;;;;;;;16.74;40.88;100749.06;5057835;28;786;-67
2022/06/01 09:12:05;;;;;;;;;;;;;;;16.74;40.87;100754.56;5058433;28;816;-70
2022/06/01 09:14:31;;;;;;;;;;;;;;;16.68;40.87;100751.00;5057869;28;1140;-66
2022/06/01 09:16:57;;;;;;;;;;;;;;;16.70;41.01;100753.47;5062887;28;840;-69
2022/06/01 09:19:25;;;;;;;;;;;;;;;16.71;41.03;100755.13;5060289;28;785;-68
2022/06/01 09:24:51;;;;;;;;;;;;;;;16.64;41.22;100749.06;5053086;28;1281;-68
2022/06/01 09:27:17;;;;;;;;;;;;;;;16.70;40.86;100754.28;5059130;28;1972;-69
2022/06/01 09:29:42;;;;;;;;;;;;;;;16.74;40.91;100740.81;5076981;28;794;-68
2022/06/01 09:32:08;;;;;;;;;;;;;;;16.68;40.93;100747.44;5067674;28;1545;-70
2022/06/01 09:34:48;;;;;;;;;;;;;;;16.71;40.74;100749.63;5057424;28;909;-66
2022/06/01 09:37:21;;;;;;;;;;;;;;;16.70;40.97;100747.97;5057872;28;830;-68
2022/06/01 09:39:51;;;;;;;;;;;;;;;16.64;40.75;100749.06;5039647;28;826;-67
2022/06/01 09:42:20;;;;;;;;;;;;;;;16.79;40.60;100745.47;5057023;28;858;-68
2022/06/01 09:44:48;;;;;;;;;;;;;;;16.72;40.52;100752.09;5042235;28;836;-68
2022/06/01 09:47:31;;;;;;;;;;;;;;;16.73;40.80;100750.16;5061000;28;1910;-67
2022/06/01 09:49:57;;;;;;;;;;;;;;;16.68;40.86;100748.25;5057971;28;1187;-65
2022/06/01 09:52:31;;;;;;;;;;;;;;;16.72;40.78;100746.59;5073307;28;1043;-67
2022/06/01 09:54:56;;;;;;;;;;;;;;;16.75;40.71;100745.22;5073775;28;1056;-62
2022/06/01 09:57:25;;;;;;;;;;;;;;;16.71;40.89;100735.91;5063038;28;1174;-65
2022/06/01 10:08:08;;;;;;;;;;;;;;;16.75;40.99;100728.75;5069359;28;1913;-65
2022/06/01 10:10:34;;;;;;;;;;;;;;;16.73;41.00;100726.28;5043729;28;1100;-66
2022/06/01 10:12:59;;;;;;;;;;;;;;;16.75;40.68;100735.06;5057855;28;829;-63
2022/06/01 10:15:27;;;;;;;;;;;;;;;16.72;40.74;100729.31;5060141;28;1051;-64
2022/06/01 10:17:53;;;;;;;;;;;;;;;16.74;40.95;100719.69;5040002;28;990;-63
2022/06/01 10:20:20;;;;;;;;;;;;;;;16.70;40.92;100718.56;5057164;28;892;-65
2022/06/01 10:22:49;;;;;;;;;;;;;;;16.70;40.98;100721.31;5060128;28;972;-65
2022/06/01 10:25:14;;;;;;;;;;;;;;;16.81;40.83;100716.66;5041545;28;861;-67
2022/06/01 10:27:47;;;;;;;;;;;;;;;16.77;40.81;100718.31;5056748;28;1914;-67
2022/06/01 10:30:12;;;;;;;;;;;;;;;16.72;40.75;100719.13;5045603;28;1081;-67
2022/06/01 10:32:38;;;;;;;;;;;;;;;16.80;40.93;100725.16;5063049;28;733;-65
2022/06/01 10:35:18;;;;;;;;;;;;;;;16.79;40.93;100718.03;5057338;28;738;-65
2022/06/01 10:37:50;;;;;;;;;;;;;;;16.79;40.60;100726.25;5063504;28;1096;-66
2022/06/01 10:40:17;;;;;;;;;;;;;;;16.76;41.03;100725.72;5056426;28;934;-67
2022/06/01 10:45:30;;;;;;;;;;;;;;;16.79;41.15;100718.88;5052797;28;890;-66
2022/06/01 10:47:58;;;;;;;;;;;;;;;16.83;40.71;100713.63;5057283;28;1987;-66
2022/06/01 10:50:25;;;;;;;;;;;;;;;16.88;41.02;100710.88;5073219;28;1320;-66
2022/06/01 10:52:50;;;;;;;;;;;;;;;16.84;40.67;100715.28;5057441;28;1185;-66
2022/06/01 10:55:20;;;;;;;;;;;;;;;16.84;41.09;100718.03;5075921;28;829;-66
2022/06/01 10:57:46;;;;;;;;;;;;;;;16.76;41.07;100709.25;5057313;28;1001;-62
2022/06/01 11:00:13;;;;;;;;;;;;;;;16.79;41.09;100704.28;5074087;28;845;-63
2022/06/01 11:02:57;;;;;;;;;;;;;;;16.85;40.92;100719.69;5059734;28;861;-65
2022/06/01 11:05:27;;;;;;;;;;;;;;;16.88;41.06;100719.97;5056184;28;802;-69
2022/06/01 11:07:55;;;;;;;;;;;;;;;16.86;40.84;100713.91;5037943;28;1991;-66
2022/06/01 11:10:39;;;;;;;;;;;;;;;16.83;41.26;100719.13;5038272;28;862;-68
2022/06/01 11:13:23;;;;;;;;;;;;;;;16.83;41.25;100713.63;5056255;28;762;-66
2022/06/01 11:15:49;;;;;;;;;;;;;;;16.88;41.21;100710.88;5061531;28;1171;-67
2022/06/01 11:18:29;;;;;;;;;;;;;;;16.91;41.18;100715.84;5038389;28;747;-68
2022/06/01 11:21:16;;;;;;;;;;;;;;;16.86;41.31;100713.09;5038605;28;834;-67
2022/06/01 11:23:46;;;;;;;;;;;;;;;16.91;40.98;100718.59;5038479;28;775;-68
2022/06/01 11:26:24;;;;;;;;;;;;;;;16.89;41.22;100715.31;5040465;28;1982;-70
2022/06/01 11:28:49;;;;;;;;;;;;;;;16.88;41.37;100708.97;5057513;28;865;-68
2022/06/01 11:31:21;;;;;;;;;;;;;;;16.89;41.29;100704.31;5063249;28;884;-67
2022/06/01 11:34:01;;;;;;;;;;;;;;;16.86;40.98;100707.59;5059725;28;782;-67
2022/06/01 11:36:30;;;;;;;;;;;;;;;16.91;41.12;100710.34;5056465;28;814;-67
2022/06/01 11:39:15;;;;;;;;;;;;;;;16.98;40.99;100712.81;5078182;28;804;-65
2022/06/01 11:41:42;;;;;;;;;;;;;;;16.91;41.00;100702.13;5031217;28;1054;-64
2022/06/01 11:44:13;;;;;;;;;;;;;;;16.91;40.78;100696.63;5041939;28;858;-66
2022/06/01 11:46:40;;;;;;;;;;;;;;;16.91;41.00;100699.38;5043607;28;1914;-67
2022/06/01 11:49:10;;;;;;;;;;;;;;;16.95;41.04;100710.63;5040972;28;1153;-67
2022/06/01 11:51:35;;;;;;;;;;;;;;;16.93;41.00;100706.22;5067430;28;1095;-67
2022/06/01 11:54:05;;;;;;;;;;;;;;;16.88;40.83;100697.16;5078431;28;1226;-65
2022/06/01 11:56:49;;;;;;;;;;;;;;;16.86;41.02;100704.84;5060577;28;1148;-65
2022/06/01 11:59:18;;;;;;;;;;;;;;;16.93;40.79;100689.75;5079265;28;800;-66
2022/06/01 12:01:44;;;;;;;;;;;;;;;16.80;40.92;100697.72;5047100;28;1327;-65
2022/06/01 12:04:20;;;;;;;;;;;;;;;16.88;40.77;100699.91;5058680;28;870;-65
2022/06/01 12:07:00;;;;;;;;;;;;;;;16.95;40.78;100688.66;5058764;28;1987;-67
2022/06/01 12:09:29;;;;;;;;;;;;;;;16.85;40.61;100681.22;5041673;28;854;-65
2022/06/01 12:11:54;;;;;;;;;;;;;;;16.89;40.78;100679.59;5041529;28;1315;-66
2022/06/01 12:14:20;;;;;;;;;;;;;;;16.86;40.83;100689.19;5058845;28;1217;-65
2022/06/01 12:16:46;;;;;;;;;;;;;;;16.77;40.86;100686.19;5063217;28;830;-66
2022/06/01 12:19:19;;;;;;;;;;;;;;;16.77;41.03;100691.69;5047798;28;928;-65
2022/06/01 12:21:44;;;;;;;;;;;;;;;16.85;40.51;100690.28;5059671;28;880;-64
2022/06/01 12:29:56;;;;;;;;;;;;;;;16.76;40.46;100706.50;5042557;28;1180;-65
2022/06/01 12:32:21;;;;;;;;;;;;;;;16.80;40.60;100698.53;5067287;28;831;-66
2022/06/01 12:34:49;;;;;;;;;;;;;;;16.83;40.59;100702.63;5059180;28;739;-67
2022/06/01 12:37:21;;;;;;;;;;;;;;;16.84;40.56;100701.53;5058933;28;922;-66
2022/06/01 12:39:47;;;;;;;;;;;;;;;16.81;40.44;100699.38;5058157;28;734;-65
2022/06/01 12:42:14;;;;;;;;;;;;;;;16.77;40.29;100696.34;5040590;28;890;-66
2022/06/01 12:44:40;;;;;;;;;;;;;;;16.76;40.66;100703.75;5065218;28;860;-65
2022/06/01 12:47:06;;;;;;;;;;;;;;;16.80;40.58;100706.75;5059360;28;1983;-64
2022/06/01 12:49:36;;;;;;;;;;;;;;;16.80;40.30;100703.19;5058416;28;853;-65
2022/06/01 12:52:08;;;;;;;;;;;;;;;16.74;40.33;100703.19;5058884;28;1225;-64
2022/06/01 12:54:37;;;;;;;;;;;;;;;16.76;40.59;100708.44;5068987;28;971;-66
2022/06/01 12:57:03;;;;;;;;;;;;;;;16.78;40.24;100708.97;5063846;28;1021;-66
2022/06/01 12:59:30;;;;;;;;;;;;;;;16.73;40.50;100711.72;5055322;28;778;-66
2022/06/01 13:02:00;;;;;;;;;;;;;;;16.72;40.75;100710.91;5062429;28;917;-65
2022/06/01 13:04:25;;;;;;;;;;;;;;;16.70;40.37;100706.78;5058258;28;906;-66
2022/06/01 13:06:51;;;;;;;;;;;;;;;16.76;40.13;100698.28;5058015;28;1898;-66
2022/06/01 13:09:18;;;;;;;;;;;;;;;16.71;40.34;100698.25;5063360;28;906;-65
2022/06/01 13:11:45;;;;;;;;;;;;;;;16.67;40.23;100691.69;5058265;28;797;-66
2022/06/01 13:14:11;;;;;;;;;;;;;;;16.72;40.13;100713.66;5040196;28;1105;-65
2022/06/01 13:16:42;;;;;;;;;;;;;;;16.71;40.12;100717.47;5062457;28;771;-66
2022/06/01 13:19:34;;;;;;;;;;;;;;;16.67;40.43;100721.88;5057900;28;917;-67
2022/06/01 13:22:02;;;;;;;;;;;;;;;16.66;40.16;100720.25;5060583;28;1700;-65
2022/06/01 13:24:28;;;;;;;;;;;;;;;16.65;39.84;100723.25;5058145;28;853;-66
2022/06/01 13:26:54;;;;;;;;;;;;;;;16.63;40.27;100707.06;5057547;28;1902;-65